Albert, Kansas
Current Conditions -  °F | °C
As of 2:15 PM on Tuesday 27 Jan 2015 (Local Time) from KGBD Reporting Station
Clear Clear  
Wind Chill: 82°   Ceiling: Unl
Heat Index: 82°   Visibility: 10mi
Dew Point: 30°   Wind: 21mph
Humidity: 15%   Direction: 240°WSW
Pressure: 29.98"   Gusts: 26mph
Location:  38.45°N, 99.01°W
Report Text: KGBD 272015Z 24018G23KT 10SM CLR 28/M01 A2998 RMK AO1
Loading
Personal Weather Stations






























Interactive Weather Map New forecast layout! Learn more

10-Day Weather Forecast

Advertisements
Track Severe Weather on mobile